Time;durP1;ratioP1;P1;durP2;ratioP2;P2;SDS_P1;SDS_P2;PMS_P1;PMS_P2;Temp;Humidity;BMP_temperature;BMP_pressure;BME280_temperature;BME280_humidity;BME280_pressure;Samples;Min_cycle;Max_cycle;Signal;HPM_P1;HPM_P2
2022/01/14 00:00:44;;;;;;;;;;;;;;;;;;5085902;28;19920;-63
2022/01/14 00:03:10;;;;;;;;;;;;;;;;;;5086115;28;19980;-63
2022/01/14 00:05:36;;;;;;;;;;;;;;;;;;5086394;28;19977;-63
2022/01/14 00:08:02;;;;;;;;;;;;;;;;;;5086310;28;19924;-63
2022/01/14 00:10:31;;;;;;;;;;;;;;;;;;5086435;28;20290;-63
2022/01/14 00:13:05;;;;;;;;;;;;;;;;;;5085887;28;19920;-63
2022/01/14 00:15:35;;;;;;;;;;;;;;;;;;5085291;28;19936;-63
2022/01/14 00:18:01;;;;;;;;;;;;;;;;;;5085796;28;20370;-63
2022/01/14 00:20:27;;;;;;;;;;;;;;;;;;5084877;28;19931;-63
2022/01/14 00:22:53;;;;;;;;;;;;;;;;;;5086157;28;19967;-63
2022/01/14 00:33:27;;;;;;;;;;;;;;;;;;5085622;28;19932;-63
2022/01/14 00:35:53;;;;;;;;;;;;;;;;;;5085813;28;19999;-63
2022/01/14 00:38:19;;;;;;;;;;;;;;;;;;5085169;28;19924;-64
2022/01/14 00:40:45;;;;;;;;;;;;;;;;;;5086469;28;20022;-62
2022/01/14 00:43:11;;;;;;;;;;;;;;;;;;5085779;28;19924;-63
2022/01/14 00:45:37;;;;;;;;;;;;;;;;;;5084411;28;19947;-63
2022/01/14 00:48:03;;;;;;;;;;;;;;;;;;5085920;28;20028;-63
2022/01/14 00:50:29;;;;;;;;;;;;;;;;;;5084903;28;20300;-63
2022/01/14 00:52:55;;;;;;;;;;;;;;;;;;5085290;28;19924;-63
2022/01/14 00:55:38;;;;;;;;;;;;;;;;;;5085563;28;20003;-64
2022/01/14 01:00:48;;;;;;;;;;;;;;;;;;5084573;28;19924;-64
2022/01/14 01:03:14;;;;;;;;;;;;;;;;;;5084093;28;20057;-64
2022/01/14 01:05:40;;;;;;;;;;;;;;;;;;5085021;28;19928;-63
2022/01/14 01:08:11;;;;;;;;;;;;;;;;;;5085458;28;19930;-63
2022/01/14 01:10:46;;;;;;;;;;;;;;;;;;5085287;28;20401;-63
2022/01/14 01:13:20;;;;;;;;;;;;;;;;;;5084827;28;20412;-63
2022/01/14 01:15:46;;;;;;;;;;;;;;;;;;5084695;28;19973;-63
2022/01/14 01:18:12;;;;;;;;;;;;;;;;;;5085357;28;19959;-63
2022/01/14 01:20:38;;;;;;;;;;;;;;;;;;5084771;28;19935;-63
2022/01/14 01:23:04;;;;;;;;;;;;;;;;;;5085346;28;20389;-63
2022/01/14 01:25:38;;;;;;;;;;;;;;;;;;5085266;28;20373;-63
2022/01/14 01:28:04;;;;;;;;;;;;;;;;;;5084682;28;19927;-63
2022/01/14 01:32:56;;;;;;;;;;;;;;;;;;5085177;28;19924;-63
2022/01/14 01:35:21;;;;;;;;;;;;;;;;;;5084420;28;20008;-63
2022/01/14 01:37:47;;;;;;;;;;;;;;;;;;5085492;28;20446;-66
2022/01/14 01:40:14;;;;;;;;;;;;;;;;;;5085295;28;19924;-63
2022/01/14 01:42:40;;;;;;;;;;;;;;;;;;5084266;28;19934;-63
2022/01/14 01:45:10;;;;;;;;;;;;;;;;;;5084338;28;19971;-63
2022/01/14 01:47:37;;;;;;;;;;;;;;;;;;5084854;28;19924;-63
2022/01/14 01:50:03;;;;;;;;;;;;;;;;;;5084645;28;19931;-63
2022/01/14 01:52:29;;;;;;;;;;;;;;;;;;5084810;28;19924;-63
2022/01/14 01:54:55;;;;;;;;;;;;;;;;;;5084833;28;20289;-63
2022/01/14 01:57:21;;;;;;;;;;;;;;;;;;5084630;28;20019;-63
2022/01/14 01:59:47;;;;;;;;;;;;;;;;;;5084675;28;19924;-63
2022/01/14 02:02:13;;;;;;;;;;;;;;;;;;5087112;28;20023;-63
2022/01/14 02:04:39;;;;;;;;;;;;;;;;;;5088697;28;20429;-63
2022/01/14 02:07:05;;;;;;;;;;;;;;;;;;5088298;28;20013;-63
2022/01/14 02:09:31;;;;;;;;;;;;;;;;;;5088747;28;19931;-63
2022/01/14 02:11:57;;;;;;;;;;;;;;;;;;5088424;28;20284;-63
2022/01/14 02:14:41;;;;;;;;;;;;;;;;;;5087873;28;19928;-63
2022/01/14 02:17:29;;;;;;;;;;;;;;;;;;5087809;28;19986;-63
2022/01/14 02:22:10;;;;;;;;;;;;;;;;;;5086571;28;20006;-63
2022/01/14 02:22:41;;;;;;;;;;;;;;;;;;5087913;28;19971;-63
2022/01/14 02:25:11;;;;;;;;;;;;;;;;;;5087093;28;19978;-63
2022/01/14 02:27:37;;;;;;;;;;;;;;;;;;5088270;28;20003;-64
2022/01/14 02:30:05;;;;;;;;;;;;;;;;;;5087487;28;20003;-63
2022/01/14 06:58:56;;;;;;;;;;;;;;;;;;5023205;28;19952;-68
2022/01/14 07:01:22;;;;;;;;;;;;;;;;;;5025227;28;19925;-67
2022/01/14 07:03:48;;;;;;;;;;;;;;;;;;5024516;28;20016;-67
2022/01/14 07:06:14;;;;;;;;;;;;;;;;;;5027260;28;19936;-68
2022/01/14 07:08:40;;;;;;;;;;;;;;;;;;5029119;28;19947;-69
2022/01/14 07:11:06;;;;;;;;;;;;;;;;;;5030367;28;20360;-67
2022/01/14 07:13:32;;;;;;;;;;;;;;;;;;5036682;28;19925;-67
2022/01/14 07:15:58;;;;;;;;;;;;;;;;;;5048256;28;20015;-68
2022/01/14 07:18:24;;;;;;;;;;;;;;;;;;5050266;28;20012;-67
2022/01/14 07:20:50;;;;;;;;;;;;;;;;;;5049985;28;19928;-67
2022/01/14 07:23:17;;;;;;;;;;;;;;;;;;5049816;28;19925;-67
2022/01/14 07:25:43;;;;;;;;;;;;;;;;;;5049663;28;19920;-67
2022/01/14 07:28:09;;;;;;;;;;;;;;;;;;5035064;28;19925;-67
2022/01/14 07:30:35;;;;;;;;;;;;;;;;;;5024627;28;20616;-68
2022/01/14 07:33:02;;;;;;;;;;;;;;;;;;5028857;28;19921;-68
2022/01/14 07:35:28;;;;;;;;;;;;;;;;;;5029384;28;19925;-68
2022/01/14 07:37:53;;;;;;;;;;;;;;;;;;5029040;28;20452;-68
2022/01/14 07:40:20;;;;;;;;;;;;;;;;;;5028200;28;19925;-68
2022/01/14 07:42:46;;;;;;;;;;;;;;;;;;5028387;28;19939;-68
2022/01/14 07:45:12;;;;;;;;;;;;;;;;;;5038583;28;19928;-68
2022/01/14 07:47:38;;;;;;;;;;;;;;;;;;5048728;28;19932;-68
2022/01/14 07:50:04;;;;;;;;;;;;;;;;;;5049263;28;19958;-68
2022/01/14 07:52:30;;;;;;;;;;;;;;;;;;5048975;28;19929;-68
2022/01/14 07:54:56;;;;;;;;;;;;;;;;;;5048996;28;20014;-68
2022/01/14 07:57:22;;;;;;;;;;;;;;;;;;5035346;28;19925;-68
2022/01/14 07:59:48;;;;;;;;;;;;;;;;;;5028269;28;19926;-68
2022/01/14 08:02:14;;;;;;;;;;;;;;;;;;5028384;28;19925;-68
2022/01/14 08:04:41;;;;;;;;;;;;;;;;;;5035739;28;19947;-68
2022/01/14 08:07:09;;;;;;;;;;;;;;;;;;5048235;28;20736;-68
2022/01/14 08:09:35;;;;;;;;;;;;;;;;;;5048920;28;20035;-68
2022/01/14 08:12:01;;;;;;;;;;;;;;;;;;5047730;28;19925;-68
2022/01/14 08:14:27;;;;;;;;;;;;;;;;;;5048694;28;20320;-68
2022/01/14 08:16:54;;;;;;;;;;;;;;;;;;5048418;28;19931;-68
2022/01/14 08:19:20;;;;;;;;;;;;;;;;;;5048605;28;19976;-68
2022/01/14 08:21:46;;;;;;;;;;;;;;;;;;5047919;28;19971;-68
2022/01/14 08:24:12;;;;;;;;;;;;;;;;;;5040330;28;20015;-67
2022/01/14 08:26:38;;;;;;;;;;;;;;;;;;5027657;28;19944;-68
2022/01/14 08:29:04;;;;;;;;;;;;;;;;;;5027806;28;19929;-68
2022/01/14 08:31:30;;;;;;;;;;;;;;;;;;5028354;28;19925;-68
2022/01/14 08:33:56;;;;;;;;;;;;;;;;;;5027356;28;19925;-68
2022/01/14 08:36:23;;;;;;;;;;;;;;;;;;5027610;28;19925;-68
2022/01/14 08:38:49;;;;;;;;;;;;;;;;;;5027873;28;19987;-68
2022/01/14 08:41:15;;;;;;;;;;;;;;;;;;5027198;28;19921;-68
2022/01/14 08:43:42;;;;;;;;;;;;;;;;;;5027803;28;20033;-68
2022/01/14 08:46:08;;;;;;;;;;;;;;;;;;5028150;28;20396;-68
2022/01/14 08:48:34;;;;;;;;;;;;;;;;;;5027719;28;20044;-68
2022/01/14 08:51:00;;;;;;;;;;;;;;;;;;5027266;28;19936;-68
2022/01/14 08:53:26;;;;;;;;;;;;;;;;;;5028216;28;19922;-68
2022/01/14 08:55:52;;;;;;;;;;;;;;;;;;5027983;28;20353;-68
2022/01/14 08:58:18;;;;;;;;;;;;;;;;;;5026105;28;19935;-68
2022/01/14 09:00:44;;;;;;;;;;;;;;;;;;5027755;28;20374;-68
2022/01/14 09:03:11;;;;;;;;;;;;;;;;;;5027045;28;20271;-67
2022/01/14 09:05:37;;;;;;;;;;;;;;;;;;5027134;28;19918;-66
2022/01/14 09:08:03;;;;;;;;;;;;;;;;;;5026970;28;19975;-66
2022/01/14 09:10:29;;;;;;;;;;;;;;;;;;5027653;28;20384;-65
2022/01/14 09:12:55;;;;;;;;;;;;;;;;;;5028992;28;19932;-66
2022/01/14 09:15:21;;;;;;;;;;;;;;;;;;5027481;28;19929;-66
2022/01/14 09:17:47;;;;;;;;;;;;;;;;;;5025335;28;19925;-65
2022/01/14 09:20:13;;;;;;;;;;;;;;;;;;5012562;28;19996;-66
2022/01/14 09:22:40;;;;;;;;;;;;;;;;;;5007373;28;19925;-66
2022/01/14 09:25:06;;;;;;;;;;;;;;;;;;5007610;28;19929;-65
2022/01/14 09:27:33;;;;;;;;;;;;;;;;;;5005131;28;19976;-65
2022/01/14 09:29:59;;;;;;;;;;;;;;;;;;5022614;28;19926;-65
2022/01/14 09:32:25;;;;;;;;;;;;;;;;;;5006677;28;19941;-65
2022/01/14 09:34:51;;;;;;;;;;;;;;;;;;5007636;28;19937;-65
2022/01/14 09:37:17;;;;;;;;;;;;;;;;;;5007346;28;19929;-65
2022/01/14 09:39:43;;;;;;;;;;;;;;;;;;5016997;28;19925;-65
2022/01/14 09:42:09;;;;;;;;;;;;;;;;;;5026343;28;19925;-65
2022/01/14 09:44:35;;;;;;;;;;;;;;;;;;5027095;28;19925;-65
2022/01/14 09:47:02;;;;;;;;;;;;;;;;;;5026378;28;20428;-65
2022/01/14 09:49:28;;;;;;;;;;;;;;;;;;5027225;28;19929;-65
2022/01/14 09:51:54;;;;;;;;;;;;;;;;;;5026346;28;19972;-65
2022/01/14 09:54:20;;;;;;;;;;;;;;;;;;5027711;28;20482;-65
2022/01/14 09:56:46;;;;;;;;;;;;;;;;;;5006489;28;19925;-65
2022/01/14 09:59:12;;;;;;;;;;;;;;;;;;5007462;28;19971;-65
2022/01/14 10:01:38;;;;;;;;;;;;;;;;;;5007492;28;19926;-65
2022/01/14 10:04:04;;;;;;;;;;;;;;;;;;5007818;28;19925;-66
2022/01/14 10:06:30;;;;;;;;;;;;;;;;;;5045713;28;19925;-65
2022/01/14 10:08:56;;;;;;;;;;;;;;;;;;5047133;28;19925;-65
2022/01/14 10:11:22;;;;;;;;;;;;;;;;;;5046653;28;20127;-65
2022/01/14 10:13:48;;;;;;;;;;;;;;;;;;5047075;28;19986;-65
2022/01/14 10:16:15;;;;;;;;;;;;;;;;;;5046661;28;19932;-65
2022/01/14 10:18:41;;;;;;;;;;;;;;;;;;5047186;28;19929;-65
2022/01/14 10:21:07;;;;;;;;;;;;;;;;;;5047334;28;19925;-65
2022/01/14 10:23:33;;;;;;;;;;;;;;;;;;5050540;28;19983;-66
2022/01/14 10:25:59;;;;;;;;;;;;;;;;;;5017374;28;19961;-65
2022/01/14 10:28:25;;;;;;;;;;;;;;;;;;5011244;28;20349;-65
2022/01/14 10:30:51;;;;;;;;;;;;;;;;;;5011086;28;20482;-65
2022/01/14 10:33:17;;;;;;;;;;;;;;;;;;5049332;28;20021;-65
2022/01/14 10:35:45;;;;;;;;;;;;;;;;;;5049997;28;19984;-65
2022/01/14 10:38:11;;;;;;;;;;;;;;;;;;5050683;28;19931;-65
2022/01/14 10:40:39;;;;;;;;;;;;;;;;;;5036535;28;19926;-66
2022/01/14 10:43:05;;;;;;;;;;;;;;;;;;5010105;28;19925;-65
2022/01/14 10:45:31;;;;;;;;;;;;;;;;;;5010763;28;19929;-65
2022/01/14 10:47:57;;;;;;;;;;;;;;;;;;5015775;28;20012;-65
2022/01/14 10:50:23;;;;;;;;;;;;;;;;;;5010715;28;19925;-65
2022/01/14 10:52:50;;;;;;;;;;;;;;;;;;5026861;28;20352;-65
2022/01/14 10:55:16;;;;;;;;;;;;;;;;;;5030402;28;19983;-64
2022/01/14 10:57:42;;;;;;;;;;;;;;;;;;5029050;28;20317;-63
2022/01/14 11:00:08;;;;;;;;;;;;;;;;;;5031836;28;19932;-65
2022/01/14 11:02:34;;;;;;;;;;;;;;;;;;5050425;28;19986;-64
2022/01/14 11:05:00;;;;;;;;;;;;;;;;;;5050211;28;20015;-64
2022/01/14 11:07:26;;;;;;;;;;;;;;;;;;5048848;28;20031;-64
2022/01/14 11:09:52;;;;;;;;;;;;;;;;;;5049883;28;19925;-64
2022/01/14 11:12:18;;;;;;;;;;;;;;;;;;5049210;28;19976;-64
2022/01/14 11:14:44;;;;;;;;;;;;;;;;;;5049902;28;20303;-64
2022/01/14 11:17:10;;;;;;;;;;;;;;;;;;5050075;28;20035;-64
2022/01/14 11:19:36;;;;;;;;;;;;;;;;;;5050111;28;20391;-66
2022/01/14 11:24:47;;;;;;;;;;;;;;;;;;5049474;28;19929;-65
2022/01/14 11:27:14;;;;;;;;;;;;;;;;;;5049087;28;19978;-64
2022/01/14 11:29:40;;;;;;;;;;;;;;;;;;5049401;28;19932;-64
2022/01/14 11:32:07;;;;;;;;;;;;;;;;;;5032473;28;19992;-64
2022/01/14 11:34:33;;;;;;;;;;;;;;;;;;5028856;28;20341;-64
2022/01/14 11:37:00;;;;;;;;;;;;;;;;;;5019184;28;20571;-64
2022/01/14 11:39:26;;;;;;;;;;;;;;;;;;5009725;28;19925;-64
2022/01/14 11:41:52;;;;;;;;;;;;;;;;;;5010887;28;19922;-65
2022/01/14 11:44:18;;;;;;;;;;;;;;;;;;5029812;28;19925;-64
2022/01/14 11:46:47;;;;;;;;;;;;;;;;;;5039798;28;19924;-65
2022/01/14 11:49:13;;;;;;;;;;;;;;;;;;5047210;28;19924;-65
2022/01/14 11:51:39;;;;;;;;;;;;;;;;;;5046824;28;19929;-66
2022/01/14 11:54:05;;;;;;;;;;;;;;;;;;5036532;28;19947;-66
2022/01/14 11:56:31;;;;;;;;;;;;;;;;;;5025845;28;20441;-66
2022/01/14 11:58:57;;;;;;;;;;;;;;;;;;5025862;28;19929;-66
2022/01/14 12:01:25;;;;;;;;;;;;;;;;;;5026008;28;21285;-65
2022/01/14 12:03:51;;;;;;;;;;;;;;;;;;5026684;28;19936;-66
2022/01/14 12:06:17;;;;;;;;;;;;;;;;;;5026653;28;19929;-66
2022/01/14 12:08:43;;;;;;;;;;;;;;;;;;5026230;28;19956;-66
2022/01/14 12:11:09;;;;;;;;;;;;;;;;;;5025941;28;20063;-66
2022/01/14 12:16:03;;;;;;;;;;;;;;;;;;5026699;28;20000;-66
2022/01/14 12:18:29;;;;;;;;;;;;;;;;;;5025229;28;20279;-66
2022/01/14 12:20:58;;;;;;;;;;;;;;;;;;5026030;28;20287;-66
2022/01/14 12:23:24;;;;;;;;;;;;;;;;;;5025735;28;19929;-67
2022/01/14 12:25:50;;;;;;;;;;;;;;;;;;5025341;28;19929;-66
2022/01/14 12:28:16;;;;;;;;;;;;;;;;;;5026583;28;19929;-66
2022/01/14 12:30:42;;;;;;;;;;;;;;;;;;5025846;28;19936;-67
2022/01/14 12:33:08;;;;;;;;;;;;;;;;;;5012401;28;19925;-67
2022/01/14 12:35:35;;;;;;;;;;;;;;;;;;5006694;28;20699;-66
2022/01/14 12:38:01;;;;;;;;;;;;;;;;;;5006257;28;20012;-66
2022/01/14 12:40:27;;;;;;;;;;;;;;;;;;5021777;28;19929;-66
2022/01/14 12:42:54;;;;;;;;;;;;;;;;;;5005682;28;19928;-66
2022/01/14 12:45:21;;;;;;;;;;;;;;;;;;5009030;28;20360;-65
2022/01/14 12:47:48;;;;;;;;;;;;;;;;;;5025707;28;19921;-65
2022/01/14 12:50:14;;;;;;;;;;;;;;;;;;5025368;28;20012;-67
2022/01/14 12:52:40;;;;;;;;;;;;;;;;;;5025248;28;20019;-68
2022/01/14 12:55:06;;;;;;;;;;;;;;;;;;5026010;28;19921;-67
2022/01/14 12:57:32;;;;;;;;;;;;;;;;;;5012995;28;19929;-67
2022/01/14 12:59:59;;;;;;;;;;;;;;;;;;5014764;28;19933;-67
2022/01/14 13:02:25;;;;;;;;;;;;;;;;;;5022370;28;19999;-67
2022/01/14 13:04:51;;;;;;;;;;;;;;;;;;5029101;28;20378;-67
2022/01/14 13:07:17;;;;;;;;;;;;;;;;;;5020938;28;19968;-68
2022/01/14 13:09:44;;;;;;;;;;;;;;;;;;5007646;28;20268;-68
2022/01/14 13:12:10;;;;;;;;;;;;;;;;;;5007217;28;20034;-67
2022/01/14 13:14:40;;;;;;;;;;;;;;;;;;5008258;28;19971;-68
2022/01/14 13:17:09;;;;;;;;;;;;;;;;;;5007666;28;20037;-65
2022/01/14 13:19:35;;;;;;;;;;;;;;;;;;5023487;28;19925;-64
2022/01/14 13:22:01;;;;;;;;;;;;;;;;;;5012266;28;19933;-64
2022/01/14 13:24:27;;;;;;;;;;;;;;;;;;5008050;28;19930;-64
2022/01/14 13:26:53;;;;;;;;;;;;;;;;;;5005785;28;19932;-64
2022/01/14 13:29:19;;;;;;;;;;;;;;;;;;5009089;28;19951;-65
2022/01/14 13:31:45;;;;;;;;;;;;;;;;;;5007856;28;19926;-64
2022/01/14 13:34:11;;;;;;;;;;;;;;;;;;5007871;28;19925;-65
2022/01/14 13:36:37;;;;;;;;;;;;;;;;;;5007709;28;19926;-65
2022/01/14 13:39:03;;;;;;;;;;;;;;;;;;5007867;28;19948;-67
2022/01/14 13:41:29;;;;;;;;;;;;;;;;;;5007273;28;19926;-68
2022/01/14 13:44:00;;;;;;;;;;;;;;;;;;5007716;28;19928;-68
2022/01/14 13:46:32;;;;;;;;;;;;;;;;;;5007668;28;20278;-67
2022/01/14 13:48:58;;;;;;;;;;;;;;;;;;5007333;28;20268;-66
2022/01/14 13:51:25;;;;;;;;;;;;;;;;;;5007301;28;20371;-67
2022/01/14 13:53:51;;;;;;;;;;;;;;;;;;5007353;28;19921;-66
2022/01/14 13:56:17;;;;;;;;;;;;;;;;;;5006401;28;19929;-67
2022/01/14 13:58:45;;;;;;;;;;;;;;;;;;5010859;28;19925;-67
2022/01/14 14:01:11;;;;;;;;;;;;;;;;;;5046168;28;20015;-68
2022/01/14 14:03:41;;;;;;;;;;;;;;;;;;5051155;28;19978;-68
2022/01/14 14:06:09;;;;;;;;;;;;;;;;;;5051464;28;19929;-68
2022/01/14 14:08:47;;;;;;;;;;;;;;;;;;5051582;28;19986;-67
2022/01/14 14:12:00;;;;;;;;;;;;;;;;;;5050064;28;19924;-67
2022/01/14 14:16:47;;;;;;;;;;;;;;;;;;5048802;28;19924;-67
2022/01/14 14:19:14;;;;;;;;;;;;;;;;;;5050981;28;20370;-67
2022/01/14 14:21:44;;;;;;;;;;;;;;;;;;5050759;28;19924;-67
2022/01/14 14:24:12;;;;;;;;;;;;;;;;;;5050795;28;19929;-67
2022/01/14 14:26:38;;;;;;;;;;;;;;;;;;5049896;28;19931;-68
2022/01/14 14:29:04;;;;;;;;;;;;;;;;;;5025894;28;19999;-68
2022/01/14 14:31:31;;;;;;;;;;;;;;;;;;5015761;28;19932;-68
2022/01/14 14:33:57;;;;;;;;;;;;;;;;;;5010117;28;19929;-68
2022/01/14 14:36:26;;;;;;;;;;;;;;;;;;5010487;28;19925;-68
2022/01/14 14:38:52;;;;;;;;;;;;;;;;;;5010095;28;19932;-68
2022/01/14 14:41:18;;;;;;;;;;;;;;;;;;5014272;28;19925;-67
2022/01/14 14:43:44;;;;;;;;;;;;;;;;;;5028623;28;19964;-67
2022/01/14 14:46:10;;;;;;;;;;;;;;;;;;5024209;28;20378;-68
2022/01/14 14:48:36;;;;;;;;;;;;;;;;;;5022016;28;19925;-70
2022/01/14 14:51:03;;;;;;;;;;;;;;;;;;5029459;28;19925;-68
2022/01/14 14:53:29;;;;;;;;;;;;;;;;;;5030286;28;19947;-68
2022/01/14 14:55:55;;;;;;;;;;;;;;;;;;5029386;28;20373;-68
2022/01/14 14:58:21;;;;;;;;;;;;;;;;;;5029853;28;20401;-67
2022/01/14 15:00:47;;;;;;;;;;;;;;;;;;5043158;28;19925;-67
2022/01/14 15:03:13;;;;;;;;;;;;;;;;;;5050187;28;19921;-68
2022/01/14 15:05:39;;;;;;;;;;;;;;;;;;5049478;28;19925;-68
2022/01/14 15:08:06;;;;;;;;;;;;;;;;;;5049724;28;19928;-67
2022/01/14 15:10:32;;;;;;;;;;;;;;;;;;5015014;28;20280;-68
2022/01/14 15:12:58;;;;;;;;;;;;;;;;;;5017538;28;20354;-68
2022/01/14 15:20:32;;;;;;;;;;;;;;;;;;5027625;28;20425;-68
2022/01/14 15:22:58;;;;;;;;;;;;;;;;;;5017895;28;20017;-68
2022/01/14 15:25:25;;;;;;;;;;;;;;;;;;5006447;28;19928;-68
2022/01/14 15:27:51;;;;;;;;;;;;;;;;;;5023602;28;19945;-68
2022/01/14 15:30:17;;;;;;;;;;;;;;;;;;5014933;28;19929;-68
2022/01/14 15:32:43;;;;;;;;;;;;;;;;;;5007307;28;20299;-68
2022/01/14 15:35:09;;;;;;;;;;;;;;;;;;5017417;28;20622;-67
2022/01/14 15:37:35;;;;;;;;;;;;;;;;;;5027178;28;20374;-67
2022/01/14 15:40:04;;;;;;;;;;;;;;;;;;5016621;28;20404;-68
2022/01/14 15:42:30;;;;;;;;;;;;;;;;;;5013646;28;19932;-67
2022/01/14 15:44:56;;;;;;;;;;;;;;;;;;5022247;28;19925;-68
2022/01/14 15:47:22;;;;;;;;;;;;;;;;;;5024551;28;20071;-68
2022/01/14 15:49:48;;;;;;;;;;;;;;;;;;5023868;28;19976;-68
2022/01/14 15:52:15;;;;;;;;;;;;;;;;;;5024300;28;19925;-68
2022/01/14 15:54:41;;;;;;;;;;;;;;;;;;5023642;28;19958;-67
2022/01/14 15:57:07;;;;;;;;;;;;;;;;;;5022963;28;19936;-67
2022/01/14 15:59:33;;;;;;;;;;;;;;;;;;5026003;28;20302;-67
2022/01/14 16:01:59;;;;;;;;;;;;;;;;;;5023714;28;20007;-67
2022/01/14 16:04:25;;;;;;;;;;;;;;;;;;5023177;28;20631;-67
2022/01/14 16:06:51;;;;;;;;;;;;;;;;;;5019305;28;19936;-67
2022/01/14 16:09:17;;;;;;;;;;;;;;;;;;5016358;28;19925;-67
2022/01/14 16:11:45;;;;;;;;;;;;;;;;;;5021337;28;19941;-67
2022/01/14 16:14:21;;;;;;;;;;;;;;;;;;5025811;28;19932;-67
2022/01/14 16:16:49;;;;;;;;;;;;;;;;;;5024885;28;19936;-68
2022/01/14 16:19:15;;;;;;;;;;;;;;;;;;5024792;28;19929;-68
2022/01/14 16:21:41;;;;;;;;;;;;;;;;;;5026187;28;19944;-68
2022/01/14 16:24:07;;;;;;;;;;;;;;;;;;5022444;28;19933;-67
2022/01/14 16:26:33;;;;;;;;;;;;;;;;;;5020931;28;19971;-67
2022/01/14 16:28:59;;;;;;;;;;;;;;;;;;5023626;28;19933;-67
2022/01/14 16:31:25;;;;;;;;;;;;;;;;;;5021280;28;19945;-67
2022/01/14 16:33:51;;;;;;;;;;;;;;;;;;5022816;28;19940;-68
2022/01/14 16:36:17;;;;;;;;;;;;;;;;;;5021282;28;19925;-68
2022/01/14 16:38:43;;;;;;;;;;;;;;;;;;5020272;28;19929;-69
2022/01/14 16:41:10;;;;;;;;;;;;;;;;;;5022461;28;20358;-68
2022/01/14 16:43:36;;;;;;;;;;;;;;;;;;5023262;28;20504;-68
2022/01/14 16:46:02;;;;;;;;;;;;;;;;;;5025709;28;19925;-68
2022/01/14 16:48:28;;;;;;;;;;;;;;;;;;5024848;28;19929;-68
2022/01/14 16:50:54;;;;;;;;;;;;;;;;;;5024619;28;19925;-68
2022/01/14 16:53:22;;;;;;;;;;;;;;;;;;5023030;28;19925;-68
2022/01/14 16:55:48;;;;;;;;;;;;;;;;;;5024560;28;19932;-69
2022/01/14 16:58:14;;;;;;;;;;;;;;;;;;5023395;28;19955;-69
2022/01/14 17:00:40;;;;;;;;;;;;;;;;;;5024773;28;19935;-68
2022/01/14 17:03:07;;;;;;;;;;;;;;;;;;5025588;28;19925;-69
2022/01/14 17:05:33;;;;;;;;;;;;;;;;;;5025049;28;19968;-68
2022/01/14 17:07:59;;;;;;;;;;;;;;;;;;5024902;28;19936;-68
2022/01/14 17:10:25;;;;;;;;;;;;;;;;;;5024276;28;19929;-68
2022/01/14 17:12:52;;;;;;;;;;;;;;;;;;5024440;28;20399;-68
2022/01/14 17:15:18;;;;;;;;;;;;;;;;;;5020681;28;19933;-68
2022/01/14 17:17:44;;;;;;;;;;;;;;;;;;5024168;28;19936;-68
2022/01/14 17:20:10;;;;;;;;;;;;;;;;;;5025036;28;19932;-68
2022/01/14 17:22:36;;;;;;;;;;;;;;;;;;5020807;28;20042;-68
2022/01/14 17:25:03;;;;;;;;;;;;;;;;;;5023305;28;19934;-68
2022/01/14 17:27:29;;;;;;;;;;;;;;;;;;5021362;28;19975;-68
2022/01/14 17:29:55;;;;;;;;;;;;;;;;;;5020105;28;19928;-68
2022/01/14 17:32:24;;;;;;;;;;;;;;;;;;5021919;28;20450;-68
2022/01/14 17:34:50;;;;;;;;;;;;;;;;;;5020445;28;20287;-68
2022/01/14 17:37:16;;;;;;;;;;;;;;;;;;5022366;28;19936;-68
2022/01/14 17:39:42;;;;;;;;;;;;;;;;;;5021487;28;19933;-68
2022/01/14 17:42:10;;;;;;;;;;;;;;;;;;5020966;28;20055;-68
2022/01/14 17:44:36;;;;;;;;;;;;;;;;;;5021252;28;19932;-68
2022/01/14 17:47:02;;;;;;;;;;;;;;;;;;5022964;28;19935;-69
2022/01/14 17:49:29;;;;;;;;;;;;;;;;;;5020006;28;19930;-69
2022/01/14 17:51:59;;;;;;;;;;;;;;;;;;5018690;28;19933;-68
2022/01/14 17:54:25;;;;;;;;;;;;;;;;;;5020336;28;20362;-65
2022/01/14 17:56:53;;;;;;;;;;;;;;;;;;5017544;28;19933;-65
2022/01/14 17:59:20;;;;;;;;;;;;;;;;;;5017592;28;20960;-65
2022/01/14 18:01:46;;;;;;;;;;;;;;;;;;5020457;28;20450;-65
2022/01/14 18:04:13;;;;;;;;;;;;;;;;;;5021048;28;19948;-65
2022/01/14 18:06:39;;;;;;;;;;;;;;;;;;5020957;28;20034;-66
2022/01/14 18:09:06;;;;;;;;;;;;;;;;;;5021807;28;20014;-65
2022/01/14 18:11:33;;;;;;;;;;;;;;;;;;5019858;28;19925;-65
2022/01/14 18:14:03;;;;;;;;;;;;;;;;;;5019863;28;20468;-64
2022/01/14 18:16:29;;;;;;;;;;;;;;;;;;5017104;28;19941;-64
2022/01/14 18:18:55;;;;;;;;;;;;;;;;;;5018652;28;19932;-65
2022/01/14 18:21:22;;;;;;;;;;;;;;;;;;5020377;28;19929;-64
2022/01/14 18:23:48;;;;;;;;;;;;;;;;;;5020847;28;20383;-64
2022/01/14 18:26:14;;;;;;;;;;;;;;;;;;5020323;28;19929;-64
2022/01/14 18:28:40;;;;;;;;;;;;;;;;;;5021611;28;19929;-64
2022/01/14 18:31:07;;;;;;;;;;;;;;;;;;5023839;28;19935;-66
2022/01/14 18:33:33;;;;;;;;;;;;;;;;;;5023817;28;19925;-65
2022/01/14 18:35:59;;;;;;;;;;;;;;;;;;5022905;28;19929;-64
2022/01/14 18:38:25;;;;;;;;;;;;;;;;;;5023413;28;20020;-64
2022/01/14 18:40:51;;;;;;;;;;;;;;;;;;5022205;28;19935;-67
2022/01/14 18:43:19;;;;;;;;;;;;;;;;;;5025009;28;19935;-66
2022/01/14 18:45:50;;;;;;;;;;;;;;;;;;5025617;28;20328;-67
2022/01/14 18:48:16;;;;;;;;;;;;;;;;;;5027170;28;19929;-67
2022/01/14 18:50:42;;;;;;;;;;;;;;;;;;5026646;28;19933;-66
2022/01/14 18:53:08;;;;;;;;;;;;;;;;;;5026455;28;19941;-67
2022/01/14 18:55:34;;;;;;;;;;;;;;;;;;5026139;28;19929;-62
2022/01/14 18:58:01;;;;;;;;;;;;;;;;;;5026037;28;19956;-62
2022/01/14 19:00:27;;;;;;;;;;;;;;;;;;5026235;28;19979;-62
2022/01/14 19:02:56;;;;;;;;;;;;;;;;;;5024488;28;19929;-62
2022/01/14 19:05:22;;;;;;;;;;;;;;;;;;5006951;28;20052;-62
2022/01/14 19:07:48;;;;;;;;;;;;;;;;;;5006328;28;19930;-62
2022/01/14 19:10:14;;;;;;;;;;;;;;;;;;5006437;28;20025;-62
2022/01/14 19:12:40;;;;;;;;;;;;;;;;;;5006679;28;19929;-62
2022/01/14 19:15:06;;;;;;;;;;;;;;;;;;5006811;28;20023;-62
2022/01/14 19:17:32;;;;;;;;;;;;;;;;;;5006564;28;19969;-62
2022/01/14 19:19:58;;;;;;;;;;;;;;;;;;5006586;28;19982;-62
2022/01/14 19:22:24;;;;;;;;;;;;;;;;;;5012664;28;20015;-62
2022/01/14 19:24:51;;;;;;;;;;;;;;;;;;5025251;28;20470;-62
2022/01/14 19:27:17;;;;;;;;;;;;;;;;;;5025991;28;20024;-62
2022/01/14 19:29:44;;;;;;;;;;;;;;;;;;5025841;28;19968;-62
2022/01/14 19:32:10;;;;;;;;;;;;;;;;;;5025911;28;19975;-62
2022/01/14 19:34:36;;;;;;;;;;;;;;;;;;5026359;28;19929;-62
2022/01/14 19:37:02;;;;;;;;;;;;;;;;;;5025491;28;19970;-63
2022/01/14 19:39:28;;;;;;;;;;;;;;;;;;5024736;28;20342;-62
2022/01/14 19:41:54;;;;;;;;;;;;;;;;;;5025745;28;19929;-63
2022/01/14 19:44:20;;;;;;;;;;;;;;;;;;5026111;28;19932;-62
2022/01/14 19:46:46;;;;;;;;;;;;;;;;;;5025102;28;19932;-63
2022/01/14 19:49:12;;;;;;;;;;;;;;;;;;5025585;28;19928;-63
2022/01/14 19:51:39;;;;;;;;;;;;;;;;;;5024138;28;19929;-63
2022/01/14 19:54:05;;;;;;;;;;;;;;;;;;5025667;28;19994;-63
2022/01/14 19:56:31;;;;;;;;;;;;;;;;;;5024434;28;19944;-62
2022/01/14 19:58:57;;;;;;;;;;;;;;;;;;5025007;28;20136;-63
2022/01/14 20:01:23;;;;;;;;;;;;;;;;;;5025986;28;19926;-63
2022/01/14 20:03:49;;;;;;;;;;;;;;;;;;5024628;28;19921;-63
2022/01/14 20:06:15;;;;;;;;;;;;;;;;;;5025633;28;19932;-62
2022/01/14 20:08:41;;;;;;;;;;;;;;;;;;5025142;28;19932;-62
2022/01/14 20:11:07;;;;;;;;;;;;;;;;;;5024326;28;19917;-63
2022/01/14 20:13:33;;;;;;;;;;;;;;;;;;5025593;28;20019;-62
2022/01/14 20:15:59;;;;;;;;;;;;;;;;;;5024963;28;19926;-62
2022/01/14 20:18:25;;;;;;;;;;;;;;;;;;5024992;28;20337;-62
2022/01/14 20:20:51;;;;;;;;;;;;;;;;;;5024489;28;20375;-63
2022/01/14 20:23:17;;;;;;;;;;;;;;;;;;5025157;28;20004;-63
2022/01/14 20:25:43;;;;;;;;;;;;;;;;;;5024364;28;19982;-63
2022/01/14 20:28:09;;;;;;;;;;;;;;;;;;5024156;28;19928;-62
2022/01/14 20:30:35;;;;;;;;;;;;;;;;;;5019446;28;20017;-62
2022/01/14 20:33:02;;;;;;;;;;;;;;;;;;5005263;28;20393;-62
2022/01/14 20:35:28;;;;;;;;;;;;;;;;;;5004628;28;20265;-62
2022/01/14 20:37:54;;;;;;;;;;;;;;;;;;5004623;28;20413;-63
2022/01/14 20:40:20;;;;;;;;;;;;;;;;;;5019032;28;19921;-62
2022/01/14 20:42:53;;;;;;;;;;;;;;;;;;5004337;28;19937;-62
2022/01/14 20:45:22;;;;;;;;;;;;;;;;;;5004800;28;20368;-63
2022/01/14 20:47:48;;;;;;;;;;;;;;;;;;5004224;28;20016;-63
2022/01/14 20:50:14;;;;;;;;;;;;;;;;;;5008576;28;19933;-62
2022/01/14 20:52:40;;;;;;;;;;;;;;;;;;5020484;28;19932;-63
2022/01/14 20:55:06;;;;;;;;;;;;;;;;;;5012442;28;19929;-62
2022/01/14 20:57:32;;;;;;;;;;;;;;;;;;5022981;28;19929;-62
2022/01/14 20:59:58;;;;;;;;;;;;;;;;;;5023500;28;19929;-62
2022/01/14 21:02:24;;;;;;;;;;;;;;;;;;5023698;28;20601;-62
2022/01/14 21:04:52;;;;;;;;;;;;;;;;;;5023164;28;19936;-62
2022/01/14 21:07:18;;;;;;;;;;;;;;;;;;5023375;28;20375;-62
2022/01/14 21:09:44;;;;;;;;;;;;;;;;;;5022968;28;19921;-62
2022/01/14 21:12:10;;;;;;;;;;;;;;;;;;5007461;28;20375;-62
2022/01/14 21:14:36;;;;;;;;;;;;;;;;;;5017307;28;20340;-62
2022/01/14 21:17:02;;;;;;;;;;;;;;;;;;5022300;28;20391;-62
2022/01/14 21:19:33;;;;;;;;;;;;;;;;;;5018996;28;19933;-62
2022/01/14 21:21:59;;;;;;;;;;;;;;;;;;5003653;28;20394;-63
2022/01/14 21:24:25;;;;;;;;;;;;;;;;;;5003378;28;20429;-62
2022/01/14 21:26:51;;;;;;;;;;;;;;;;;;5002937;28;20355;-63
2022/01/14 21:29:17;;;;;;;;;;;;;;;;;;5003080;28;20008;-63
2022/01/14 21:31:43;;;;;;;;;;;;;;;;;;5004267;28;19964;-63
2022/01/14 21:34:09;;;;;;;;;;;;;;;;;;5004332;28;19922;-63